Time;durP1;ratioP1;P1;durP2;ratioP2;P2;SDS_P1;SDS_P2;PMS_P1;PMS_P2;Temp;Humidity;BMP_temperature;BMP_pressure;BME280_temperature;BME280_humidity;BME280_pressure;Samples;Min_cycle;Max_cycle;Signal;HPM_P1;HPM_P2
2024/01/27 05:28:55;;;;;;;;;74.67;58.33;;;;;2.04;100.00;103364.56;5229782;23;45684;-73
2024/01/27 05:31:21;;;;;;;;;73.00;55.00;;;;;1.77;100.00;103326.25;4978597;28;47282;-73
2024/01/27 05:33:46;;;;;;;;;87.67;67.00;;;;;1.63;100.00;103293.56;4980156;28;45455;-74
2024/01/27 05:36:11;;;;;;;;;82.00;61.00;;;;;1.93;100.00;103341.72;4980292;28;52533;-74
2024/01/27 05:38:36;;;;;;;;;77.33;60.67;;;;;1.89;100.00;103344.81;4978823;28;45375;-74
2024/01/27 05:41:03;;;;;;;;;90.00;68.33;;;;;1.92;100.00;103345.09;4979918;28;49594;-72
2024/01/27 05:43:28;;;;;;;;;88.67;67.00;;;;;1.99;100.00;103361.53;4980036;28;45414;-72
2024/01/27 05:45:53;;;;;;;;;87.33;69.33;;;;;1.70;100.00;103305.53;4978385;28;47014;-72
2024/01/27 05:48:19;;;;;;;;;90.33;68.67;;;;;1.98;100.00;103361.34;4963029;28;45479;-74
2024/01/27 05:50:56;;;;;;;;;90.33;69.33;;;;;1.67;100.00;103298.31;4981210;28;45386;-74
2024/01/27 05:53:22;;;;;;;;;88.00;65.33;;;;;1.83;100.00;103332.06;4973791;28;45142;-74
2024/01/27 05:55:47;;;;;;;;;91.67;71.33;;;;;1.63;100.00;103301.38;4977644;28;45286;-74
2024/01/27 05:58:12;;;;;;;;;93.67;70.00;;;;;1.33;100.00;103244.50;4959447;28;54779;-74
2024/01/27 06:00:38;;;;;;;;;88.67;65.33;;;;;1.85;100.00;103340.97;4981600;28;45425;-74
2024/01/27 06:03:03;;;;;;;;;91.67;70.67;;;;;1.53;100.00;103288.19;4961880;28;58971;-77
2024/01/27 06:05:29;;;;;;;;;92.33;70.00;;;;;1.69;100.00;103325.47;4981051;28;45283;-74
2024/01/27 06:07:54;;;;;;;;;83.00;66.00;;;;;1.54;100.00;103284.81;4980549;28;45490;-74
2024/01/27 06:10:20;;;;;;;;;92.67;68.33;;;;;1.54;100.00;103295.22;4980902;28;45236;-74
2024/01/27 06:12:45;;;;;;;;;89.33;66.67;;;;;1.73;100.00;103332.81;4979081;28;45428;-74
2024/01/27 06:15:10;;;;;;;;;81.33;62.33;;;;;1.60;100.00;103314.13;4974304;28;50545;-74
2024/01/27 06:17:36;;;;;;;;;83.67;64.33;;;;;1.31;100.00;103272.97;4977589;28;45228;-74
2024/01/27 06:20:01;;;;;;;;;89.67;70.67;;;;;1.09;100.00;103235.09;4975048;28;45500;-74
2024/01/27 06:22:26;;;;;;;;;87.00;65.33;;;;;1.53;100.00;103309.94;4962871;28;45732;-75
2024/01/27 06:24:52;;;;;;;;;84.33;69.33;;;;;1.78;100.00;103362.88;4975963;28;54609;-74
2024/01/27 06:27:17;;;;;;;;;88.33;65.33;;;;;1.77;100.00;103355.84;4978456;28;45167;-75
2024/01/27 06:29:43;;;;;;;;;88.33;66.33;;;;;1.77;100.00;103347.09;4980483;28;47450;-74
2024/01/27 06:32:09;;;;;;;;;85.33;67.00;;;;;1.66;100.00;103332.06;4980583;28;45342;-74
2024/01/27 06:34:34;;;;;;;;;89.33;64.33;;;;;1.53;100.00;103309.03;4959565;28;47347;-74
2024/01/27 06:37:00;;;;;;;;;80.00;61.67;;;;;1.63;100.00;103327.47;4957330;28;45528;-74
2024/01/27 06:39:25;;;;;;;;;84.00;63.67;;;;;1.34;100.00;103273.31;4979277;28;45373;-74
2024/01/27 06:41:51;;;;;;;;;81.67;61.67;;;;;1.72;100.00;103349.22;4980424;28;45380;-74
2024/01/27 06:44:16;;;;;;;;;82.67;63.67;;;;;1.49;100.00;103313.03;4978453;28;46564;-74
2024/01/27 06:46:41;;;;;;;;;82.00;63.67;;;;;0.97;100.00;103223.44;4980583;28;45222;-74
2024/01/27 06:49:07;;;;;;;;;67.67;53.33;;;;;1.50;100.00;103320.06;4978928;28;45541;-75
2024/01/27 06:51:32;;;;;;;;;67.67;52.00;;;;;1.66;100.00;103351.22;4980486;28;54326;-75
2024/01/27 06:53:57;;;;;;;;;46.50;36.50;;;;;1.55;100.00;103331.88;4979170;28;45221;-74
2024/01/27 06:56:22;;;;;;;;;63.00;48.67;;;;;1.62;100.00;103351.66;4959281;28;45475;-75
2024/01/27 06:58:48;;;;;;;;;55.00;44.00;;;;;1.48;100.00;103325.88;4958627;28;54095;-75
2024/01/27 07:01:13;;;;;;;;;37.00;33.75;;;;;1.58;100.00;103344.31;4975968;28;50340;-75
2024/01/27 07:03:39;;;;;;;;;39.00;38.25;;;;;1.40;100.00;103304.28;4962216;28;46015;-75
2024/01/27 07:06:05;;;;;;;;;48.00;39.25;;;;;1.58;100.00;103338.19;4959373;28;45397;-77
2024/01/27 07:08:32;;;;;;;;;45.25;31.50;;;;;1.72;100.00;103344.03;4981015;28;45443;-75
2024/01/27 07:10:59;;;;;;;;;47.25;40.25;;;;;1.53;100.00;103309.94;4977501;28;45411;-75
2024/01/27 07:13:24;;;;;;;;;47.25;39.50;;;;;1.23;100.00;103259.94;4961185;28;47103;-75
2024/01/27 07:15:50;;;;;;;;;46.50;39.75;;;;;1.72;100.00;103353.53;4963062;28;45367;-75
2024/01/27 07:18:17;;;;;;;;;46.00;42.00;;;;;1.61;100.00;103334.19;4974854;28;45365;-75
2024/01/27 07:20:42;;;;;;;;;44.75;39.75;;;;;1.70;100.00;103355.97;4979716;28;45258;-75
2024/01/27 07:23:08;;;;;;;;;45.75;40.00;;;;;1.71;100.00;103354.28;4961175;28;56920;-74
2024/01/27 07:25:33;;;;;;;;;51.00;39.67;;;;;1.45;100.00;103308.25;4979734;28;45281;-76
2024/01/27 07:27:59;;;;;;;;;49.00;40.00;;;;;1.59;100.00;103332.19;4976950;28;45365;-76
2024/01/27 07:30:24;;;;;;;;;42.75;38.75;;;;;1.50;100.00;103317.47;4973611;28;45433;-74
2024/01/27 07:32:49;;;;;;;;;50.25;43.75;;;;;1.80;100.00;103373.47;4978733;28;47180;-73
2024/01/27 07:35:15;;;;;;;;;56.67;42.33;;;;;1.38;100.00;103294.47;4961732;28;45448;-73
2024/01/27 07:37:41;;;;;;;;;49.25;41.75;;;;;1.70;100.00;103353.38;4962743;28;45470;-73
2024/01/27 07:40:08;;;;;;;;;45.75;40.00;;;;;1.50;100.00;103295.69;4977889;28;45211;-73
2024/01/27 07:42:34;;;;;;;;;49.25;40.00;;;;;1.78;100.00;103354.16;4977587;28;45421;-74
2024/01/27 07:44:59;;;;;;;;;62.33;47.67;;;;;1.86;100.00;103373.19;4956359;28;45390;-73
2024/01/27 07:47:24;;;;;;;;;53.67;42.00;;;;;1.69;100.00;103348.00;4968142;28;45447;-73
2024/01/27 07:49:50;;;;;;;;;57.25;42.00;;;;;1.63;100.00;103337.88;4970308;28;46487;-72
2024/01/27 07:52:16;;;;;;;;;48.50;40.50;;;;;1.75;100.00;103346.03;4976587;28;45457;-74
2024/01/27 07:54:41;;;;;;;;;52.00;42.67;;;;;1.89;100.00;103363.06;4970521;28;45670;-74
2024/01/27 07:57:06;;;;;;;;;54.67;43.00;;;;;1.84;100.00;103351.22;4976692;28;45426;-75
2024/01/27 07:59:32;;;;;;;;;49.33;42.33;;;;;1.92;100.00;103365.97;4958357;28;45899;-74
2024/01/27 08:01:59;;;;;;;;;59.33;43.33;;;;;1.69;100.00;103324.56;4954709;28;47169;-74
2024/01/27 08:04:24;;;;;;;;;55.67;41.67;;;;;1.84;100.00;103349.53;4974244;28;45316;-73
2024/01/27 08:06:51;;;;;;;;;49.33;43.33;;;;;1.73;100.00;103325.00;4961449;28;45379;-74
2024/01/27 08:09:17;;;;;;;;;64.67;46.33;;;;;1.98;100.00;103371.78;4960700;28;45481;-74
2024/01/27 08:11:43;;;;;;;;;55.33;44.00;;;;;1.59;100.00;103295.69;4974125;28;45772;-76
2024/01/27 08:14:09;;;;;;;;;58.67;43.33;;;;;2.00;100.00;103365.06;4958848;28;45349;-76
2024/01/27 08:16:34;;;;;;;;;58.00;47.33;;;;;1.54;100.00;103279.59;4957302;28;45248;-76
2024/01/27 08:19:00;;;;;;;;;49.00;42.00;;;;;2.03;100.00;103373.19;4954556;28;45562;-76
2024/01/27 08:21:25;;;;;;;;;44.67;39.33;;;;;2.07;100.00;103385.75;4961991;28;45346;-76
2024/01/27 08:23:50;;;;;;;;;55.67;45.00;;;;;2.10;100.00;103378.25;4966331;28;51765;-75
2024/01/27 08:26:16;;;;;;;;;51.00;43.33;;;;;1.81;100.00;103317.03;4969219;28;45240;-76
2024/01/27 08:28:41;;;;;;;;;59.33;45.67;;;;;1.76;100.00;103307.06;4980160;28;45393;-76
2024/01/27 08:31:07;;;;;;;;;46.67;39.67;;;;;2.18;100.00;103371.16;4964378;28;47691;-75
2024/01/27 08:33:32;;;;;;;;;62.33;47.67;;;;;2.21;100.00;103367.19;4982693;28;45382;-76
2024/01/27 08:35:58;;;;;;;;;52.33;43.00;;;;;2.00;100.00;103324.22;4983755;28;44619;-76
2024/01/27 08:38:23;;;;;;;;;53.33;43.67;;;;;2.15;100.00;103330.03;4983012;28;45235;-75
2024/01/27 08:40:48;;;;;;;;;56.33;44.67;;;;;2.15;100.00;103331.72;4979224;28;45325;-76
2024/01/27 08:43:14;;;;;;;;;58.33;45.33;;;;;2.46;100.00;103374.81;4980625;28;45289;-76
2024/01/27 08:45:39;;;;;;;;;52.33;45.00;;;;;2.41;100.00;103356.13;4975021;28;44698;-76
2024/01/27 08:48:05;;;;;;;;;63.00;50.00;;;;;2.46;100.00;103349.66;4957613;28;45475;-76
2024/01/27 08:50:31;;;;;;;;;59.00;47.67;;;;;2.51;100.00;103343.97;4972933;28;45426;-75
2024/01/27 08:52:56;;;;;;;;;56.67;46.33;;;;;2.65;100.00;103360.19;4973947;28;47527;-73
2024/01/27 08:55:23;;;;;;;;;60.33;48.67;;;;;2.20;100.00;103265.28;4972748;28;49378;-74
2024/01/27 08:57:49;;;;;;;;;56.50;46.50;;;;;2.66;100.00;103333.31;4963151;28;45422;-74
2024/01/27 09:00:16;;;;;;;;;61.00;47.33;;;;;2.13;100.00;103232.47;4975806;28;45347;-74
2024/01/27 09:02:42;;;;;;;;;59.67;47.67;;;;;2.87;100.00;103354.44;4979571;28;45315;-75
2024/01/27 09:05:07;;;;;;;;;57.00;47.33;;;;;2.78;100.00;103325.75;4973893;28;45248;-74
2024/01/27 09:07:34;;;;;;;;;57.00;41.33;;;;;2.87;100.00;103317.88;4978452;28;45524;-74
2024/01/27 09:09:59;;;;;;;;;60.33;47.33;;;;;2.70;100.00;103279.69;4965945;28;45967;-76
2024/01/27 09:12:24;;;;;;;;;61.00;46.00;;;;;2.80;100.00;103282.44;4948722;28;45309;-78
2024/01/27 09:14:49;;;;;;;;;62.67;46.33;;;;;3.21;100.00;103332.44;4963591;28;54624;-75
2024/01/27 09:17:15;;;;;;;;;58.33;45.67;;;;;2.93;100.00;103281.88;4974602;28;49849;-75
2024/01/27 09:19:40;;;;;;;;;59.00;46.75;;;;;3.26;100.00;103331.19;4962625;28;45936;-75
2024/01/27 09:22:06;;;;;;;;;60.67;49.33;;;;;3.22;100.00;103321.25;4958951;28;45355;-75
2024/01/27 09:24:31;;;;;;;;;62.33;48.67;;;;;3.37;100.00;103337.44;4956386;28;48908;-76
2024/01/27 09:26:57;;;;;;;;;67.67;52.00;;;;;3.17;100.00;103293.75;4947371;28;45781;-75
2024/01/27 09:29:22;;;;;;;;;58.00;45.50;;;;;3.38;100.00;103320.06;4972740;28;56494;-75
2024/01/27 09:31:47;;;;;;;;;60.00;46.33;;;;;3.22;100.00;103289.88;4976495;28;45240;-76
2024/01/27 09:34:13;;;;;;;;;61.00;50.00;;;;;3.39;100.00;103298.34;4960236;28;45393;-75
2024/01/27 09:36:38;;;;;;;;;62.67;49.33;;;;;3.62;100.00;103329.28;4961735;28;46633;-76
2024/01/27 09:39:04;;;;;;;;;64.67;49.67;;;;;3.65;100.00;103321.72;4968758;28;45376;-75
2024/01/27 09:41:34;;;;;;;;;63.25;49.00;;;;;3.61;100.00;103311.75;4972352;28;45292;-75
2024/01/27 09:44:02;;;;;;;;;61.00;49.50;;;;;3.39;100.00;103264.38;4980935;28;45361;-76
2024/01/27 09:46:29;;;;;;;;;64.67;51.33;;;;;3.85;100.00;103334.94;4976182;28;45506;-75
2024/01/27 09:48:55;;;;;;;;;60.50;48.75;;;;;3.77;100.00;103313.28;4980632;28;46175;-75
2024/01/27 09:51:21;;;;;;;;;59.25;48.00;;;;;3.70;100.00;103291.69;4983538;28;45418;-78
2024/01/27 09:53:46;;;;;;;;;61.25;46.50;;;;;3.78;100.00;103286.38;4962951;28;45850;-74
2024/01/27 09:56:17;;;;;;;;;62.25;49.75;;;;;4.12;100.00;103330.41;4984929;28;45318;-73
2024/01/27 09:58:44;;;;;;;;;61.00;47.50;;;;;4.13;100.00;103303.44;4958841;28;46846;-74
2024/01/27 10:01:10;;;;;;;;;57.75;47.75;;;;;4.50;100.00;103341.72;4986194;28;45694;-74
2024/01/27 10:03:38;;;;;;;;;64.50;49.75;;;;;4.68;100.00;103352.94;4973262;28;45448;-74
2024/01/27 10:06:07;;;;;;;;;64.25;49.75;;;;;4.75;100.00;103347.44;4991875;28;45233;-74
2024/01/27 10:08:33;;;;;;;;;90.67;69.67;;;;;4.60;100.00;103297.22;4977944;28;45437;-75
2024/01/27 10:10:58;;;;;;;;;85.33;65.33;;;;;5.08;100.00;103357.38;4988234;28;45298;-73
2024/01/27 10:13:27;;;;;;;;;63.75;51.00;;;;;5.07;100.00;103345.06;4977201;28;45446;-74
2024/01/27 10:16:06;;;;;;;;;70.67;57.00;;;;;5.28;100.00;103350.31;4983709;28;45351;-76
2024/01/27 10:18:32;;;;;;;;;76.00;59.00;;;;;5.44;100.00;103331.59;4987152;28;45320;-75
2024/01/27 10:20:58;;;;;;;;;121.25;103.25;;;;;5.79;100.00;103339.81;4968324;28;45427;-74
2024/01/27 10:23:24;;;;;;;;;72.00;56.67;;;;;5.93;100.00;103323.56;4978146;28;45506;-75
2024/01/27 10:25:50;;;;;;;;;75.00;55.67;;;;;6.26;100.00;103335.94;4966821;28;45790;-75
2024/01/27 10:28:15;;;;;;;;;10.50;7.75;;;;;6.35;100.00;103305.97;4984080;28;46964;-76
2024/01/27 10:30:41;;;;;;;;;63.75;49.25;;;;;6.52;100.00;103297.75;4967368;28;45480;-76
2024/01/27 10:33:10;;;;;;;;;53.00;44.25;;;;;6.91;100.00;103322.78;4984887;28;45364;-75
2024/01/27 10:35:36;;;;;;;;;48.25;40.75;;;;;6.92;100.00;103279.94;4981388;28;45417;-75
2024/01/27 10:38:01;;;;;;;;;58.25;46.75;;;;;7.26;100.00;103282.56;4967830;28;48198;-73
2024/01/27 10:40:26;;;;;;;;;73.75;53.75;;;;;7.59;100.00;103300.97;4977724;28;45468;-74
2024/01/27 10:43:02;;;;;;;;;51.50;39.25;;;;;7.92;100.00;103319.19;4963328;28;45531;-73
2024/01/27 10:45:41;;;;;;;;;44.00;38.50;;;;;8.16;100.00;103309.59;4962398;28;47002;-73
2024/01/27 10:48:13;;;;;;;;;55.50;42.50;;;;;8.37;100.00;103312.88;4958532;28;47027;-73
2024/01/27 10:50:39;;;;;;;;;45.75;39.75;;;;;8.42;100.00;103272.91;4966512;28;45319;-73
2024/01/27 10:53:15;;;;;;;;;48.00;38.75;;;;;8.71;100.00;103306.69;4966329;28;45539;-73
2024/01/27 10:55:42;;;;;;;;;48.25;39.25;;;;;8.79;100.00;103306.31;4979358;28;45430;-73
2024/01/27 10:58:08;;;;;;;;;48.75;40.50;;;;;8.75;100.00;103289.34;4982897;28;45488;-74
2024/01/27 11:00:34;;;;;;;;;41.00;38.00;;;;;8.93;100.00;103308.19;4969772;28;45259;-75
2024/01/27 11:03:02;;;;;;;;;46.25;36.50;;;;;9.02;100.00;103294.75;4974817;28;45382;-74
2024/01/27 11:05:31;;;;;;;;;44.25;38.00;;;;;9.02;100.00;103292.09;4985399;28;45743;-74
2024/01/27 11:07:58;;;;;;;;;38.00;35.50;;;;;8.90;100.00;103249.97;4969814;28;46080;-74
2024/01/27 11:10:26;;;;;;;;;40.25;34.25;;;;;9.16;100.00;103284.38;4987423;28;45262;-74
2024/01/27 11:12:55;;;;;;;;;36.75;32.50;;;;;9.01;100.00;103249.00;4971010;28;45417;-74
2024/01/27 11:15:21;;;;;;;;;43.75;37.50;;;;;9.21;100.00;103281.13;4975831;28;45422;-74
2024/01/27 11:17:46;;;;;;;;;46.25;38.25;;;;;9.21;100.00;103287.31;4976292;28;46145;-74
2024/01/27 11:20:12;;;;;;;;;41.50;34.00;;;;;9.26;100.00;103285.91;4961756;28;44808;-74
2024/01/27 11:22:39;;;;;;;;;45.50;37.50;;;;;9.25;100.00;103276.19;4978034;28;45496;-74
2024/01/27 11:25:10;;;;;;;;;44.00;36.50;;;;;9.27;100.00;103273.63;4978217;28;46079;-75
2024/01/27 11:27:36;;;;;;;;;36.50;31.25;;;;;9.11;100.00;103224.19;4976109;28;45429;-74
2024/01/27 11:30:02;;;;;;;;;43.50;36.50;;;;;9.15;100.00;103232.38;4974951;28;45328;-75
2024/01/27 11:32:27;;;;;;;;;34.75;34.00;;;;;9.21;100.00;103221.34;4960630;28;45487;-76
2024/01/27 11:34:52;;;;;;;;;42.25;33.75;;;;;9.46;100.00;103254.72;4979531;28;45442;-76
2024/01/27 11:37:24;;;;;;;;;35.50;32.50;;;;;9.39;100.00;103222.63;4978790;28;57804;-76
2024/01/27 11:39:49;;;;;;;;;31.50;27.75;;;;;9.74;100.00;103245.19;4954969;28;46134;-76
2024/01/27 11:42:15;;;;;;;;;35.75;28.75;;;;;9.66;100.00;103216.44;4961173;28;45374;-76
2024/01/27 11:44:41;;;;;;;;;11.50;11.50;;;;;9.84;100.00;103239.72;4979672;28;45519;-76
2024/01/27 11:47:18;;;;;;;;;11.75;11.50;;;;;9.85;100.00;103227.41;4973899;28;45693;-78
2024/01/27 11:49:51;;;;;;;;;10.50;6.50;;;;;9.95;100.00;103234.25;4973143;28;45253;-76
2024/01/27 11:52:17;;;;;;;;;9.50;6.00;;;;;9.74;100.00;103186.19;4979011;28;45528;-76
2024/01/27 11:54:43;;;;;;;;;9.50;7.00;;;;;9.90;100.00;103204.88;4970482;28;45484;-79
2024/01/27 11:57:08;;;;;;;;;12.50;12.50;;;;;10.05;100.00;103224.38;4978604;28;45731;-75
2024/01/27 11:59:35;;;;;;;;;16.25;16.25;;;;;9.97;100.00;103206.16;4961292;28;45449;-76
2024/01/27 12:02:01;;;;;;;;;19.00;18.50;;;;;9.87;100.00;103178.25;4956465;28;44668;-76
2024/01/27 12:04:28;;;;;;;;;11.25;9.75;;;;;9.70;100.00;103145.44;4975223;28;45214;-76
2024/01/27 12:06:54;;;;;;;;;11.00;6.50;;;;;9.96;100.00;103183.22;4977648;28;45275;-76
2024/01/27 12:09:19;;;;;;;;;27.75;22.75;;;;;9.77;100.00;103147.66;4956092;28;45618;-75
2024/01/27 12:11:45;;;;;;;;;11.25;9.25;;;;;10.11;100.00;103200.09;4982110;28;44823;-75
2024/01/27 12:14:11;;;;;;;;;13.00;9.00;;;;;10.23;100.00;103219.38;4981814;28;45430;-75
2024/01/27 12:16:37;;;;;;;;;30.00;24.50;;;;;10.19;100.00;103201.47;4964123;28;46852;-76
2024/01/27 12:19:02;;;;;;;;;19.75;15.25;;;;;10.32;100.00;103218.16;4980236;28;45354;-76
2024/01/27 12:21:28;;;;;;;;;6.50;5.00;;;;;10.19;100.00;103192.63;4961638;28;45735;-76
2024/01/27 12:23:55;;;;;;;;;4.50;4.00;;;;;10.09;100.00;103176.19;4972134;28;45724;-76
2024/01/27 12:26:29;;;;;;;;;6.00;6.00;;;;;10.36;100.00;103202.56;4948592;28;46487;-75
2024/01/27 12:28:55;;;;;;;;;6.25;6.25;;;;;10.33;100.00;103191.81;4974011;28;45511;-75
2024/01/27 12:31:22;;;;;;;;;17.50;16.75;;;;;10.24;100.00;103163.03;4976700;28;45426;-75
2024/01/27 12:33:53;;;;;;;;;11.50;7.75;;;;;10.11;100.00;103134.03;4973807;28;45377;-76
2024/01/27 12:36:22;;;;;;;;;10.75;10.00;;;;;10.18;100.00;103143.25;4963614;28;45638;-74
2024/01/27 12:38:54;;;;;;;;;13.50;11.25;;;;;10.34;100.00;103161.94;4974400;28;45389;-75
2024/01/27 12:41:19;;;;;;;;;10.75;10.25;;;;;10.28;100.00;103145.69;4977643;28;45409;-74
2024/01/27 12:43:45;;;;;;;;;10.50;8.25;;;;;10.20;100.00;103121.38;4972526;28;45310;-75
2024/01/27 12:46:11;;;;;;;;;8.50;8.50;;;;;10.18;100.00;103112.44;4977700;28;45310;-74
2024/01/27 12:48:36;;;;;;;;;12.25;8.75;;;;;10.18;100.00;103122.09;4967167;28;45280;-74
2024/01/27 12:51:02;;;;;;;;;10.25;10.25;;;;;10.23;100.00;103123.31;4977198;28;46034;-74
2024/01/27 12:53:27;;;;;;;;;7.25;6.75;;;;;10.34;100.00;103142.53;4973228;28;45421;-75
2024/01/27 12:55:53;;;;;;;;;9.75;8.25;;;;;10.33;100.00;103138.94;4977124;28;45296;-76
2024/01/27 12:58:18;;;;;;;;;7.25;7.25;;;;;10.26;100.00;103123.50;4974616;28;45466;-75
2024/01/27 13:00:44;;;;;;;;;10.00;7.00;;;;;10.24;100.00;103128.66;4977098;28;45891;-76
2024/01/27 13:03:09;;;;;;;;;6.00;5.00;;;;;10.04;100.00;103078.94;4975236;28;49647;-76
2024/01/27 13:05:34;;;;;;;;;5.00;5.00;;;;;10.29;100.00;103127.28;4976539;28;46344;-76
2024/01/27 13:08:00;;;;;;;;;12.75;7.00;;;;;10.25;100.00;103125.22;4959652;28;48233;-76
2024/01/27 13:10:25;;;;;;;;;7.00;7.00;;;;;10.26;98.08;103119.13;4971192;28;45231;-76
2024/01/27 13:12:50;;;;;;;;;10.50;7.00;;;;;10.33;100.00;103115.16;4956708;28;45271;-74
2024/01/27 13:15:16;;;;;;;;;8.25;7.00;;;;;10.05;100.00;103047.34;4954240;28;45462;-75
2024/01/27 13:17:41;;;;;;;;;12.00;7.50;;;;;10.18;100.00;103064.84;4974733;28;59354;-75
2024/01/27 13:20:07;;;;;;;;;11.25;9.00;;;;;10.43;100.00;103108.72;4977457;28;45376;-75
2024/01/27 13:22:32;;;;;;;;;10.00;8.50;;;;;10.40;100.00;103108.53;4977962;28;45298;-75
2024/01/27 13:25:01;;;;;;;;;3.25;3.25;;;;;10.32;100.00;103108.03;4984596;28;45347;-75
2024/01/27 13:27:26;;;;;;;;;7.50;5.75;;;;;10.36;100.00;103099.47;4976369;28;45207;-75
2024/01/27 13:29:52;;;;;;;;;12.50;10.00;;;;;10.09;100.00;103056.38;4967980;28;45576;-75
2024/01/27 13:32:18;;;;;;;;;9.50;6.25;;;;;10.20;99.57;103087.03;4971182;28;55005;-75
2024/01/27 13:34:44;;;;;;;;;6.00;5.00;;;;;10.25;100.00;103077.66;4965060;28;47147;-74
2024/01/27 13:37:10;;;;;;;;;10.25;9.75;;;;;10.39;100.00;103088.19;4984719;28;45499;-74
2024/01/27 13:39:35;;;;;;;;;10.50;9.25;;;;;10.07;100.00;103016.63;4964078;28;45388;-74
2024/01/27 13:42:01;;;;;;;;;11.50;7.50;;;;;10.30;100.00;103052.41;4975954;28;48418;-74
2024/01/27 13:44:26;;;;;;;;;13.75;11.25;;;;;10.42;100.00;103057.56;4980585;28;45458;-75
2024/01/27 13:46:52;;;;;;;;;12.25;12.00;;;;;10.50;100.00;103068.59;4974063;28;45370;-74
2024/01/27 13:49:17;;;;;;;;;17.50;15.50;;;;;10.47;95.42;103079.00;4975178;28;45312;-76
2024/01/27 13:51:42;;;;;;;;;16.00;13.00;;;;;10.08;97.38;102997.31;4981309;28;45272;-74
2024/01/27 13:54:09;;;;;;;;;31.50;27.50;;;;;10.38;100.00;103047.63;4969417;28;56058;-74
2024/01/27 13:56:34;;;;;;;;;5.75;5.75;;;;;10.16;98.45;103007.44;4980994;28;45254;-72
2024/01/27 13:59:00;;;;;;;;;6.00;6.00;;;;;10.26;99.77;103029.25;4976931;28;45302;-72
2024/01/27 14:01:25;;;;;;;;;5.25;5.00;;;;;10.46;92.17;103049.00;4984002;28;45248;-73
2024/01/27 14:03:50;;;;;;;;;5.00;5.00;;;;;10.34;100.00;103027.09;4973128;28;45250;-72
2024/01/27 14:06:17;;;;;;;;;5.25;5.25;;;;;10.47;100.00;103034.97;4978815;28;45272;-72
2024/01/27 14:08:43;;;;;;;;;7.75;4.75;;;;;10.33;96.63;103001.47;4968928;28;45373;-72
2024/01/27 14:11:10;;;;;;;;;5.00;5.00;;;;;10.58;96.13;103045.28;4971552;28;45300;-72
2024/01/27 14:13:35;;;;;;;;;8.50;5.75;;;;;10.46;100.00;103000.50;4980649;28;46099;-72
2024/01/27 14:16:00;;;;;;;;;10.25;6.00;;;;;10.63;94.46;103025.31;4984231;28;52015;-72
2024/01/27 14:18:26;;;;;;;;;7.00;7.00;;;;;10.68;100.00;103016.81;4948895;28;45708;-72
2024/01/27 14:20:51;;;;;;;;;6.50;6.50;;;;;10.75;91.27;103041.91;4960805;28;57519;-71
2024/01/27 14:23:17;;;;;;;;;6.00;3.75;;;;;10.48;96.40;102988.28;4975508;28;45493;-71
2024/01/27 14:25:42;;;;;;;;;5.00;4.00;;;;;10.73;97.04;103014.47;4974946;28;45577;-72
2024/01/27 14:28:10;;;;;;;;;5.75;4.75;;;;;10.81;100.00;103023.78;4967567;28;45515;-72
2024/01/27 14:30:36;;;;;;;;;5.75;5.00;;;;;10.69;89.73;103005.41;4963817;28;45307;-72
2024/01/27 14:33:01;;;;;;;;;0.75;0.25;;;;;10.51;87.53;102976.16;4961444;28;45438;-72
2024/01/27 14:35:26;;;;;;;;;5.00;4.00;;;;;10.66;91.35;103009.63;4964626;28;45290;-72
2024/01/27 14:37:53;;;;;;;;;5.25;3.00;;;;;10.74;97.76;103034.78;4961870;28;52692;-72
2024/01/27 14:40:20;;;;;;;;;3.50;3.00;;;;;10.49;93.30;102996.28;4957196;28;45412;-72
2024/01/27 14:42:46;;;;;;;;;5.25;4.25;;;;;10.62;90.54;103008.53;4958190;28;45955;-72
2024/01/27 14:45:12;;;;;;;;;9.50;6.00;;;;;10.62;92.43;103007.63;4960847;28;45385;-72
2024/01/27 14:47:37;;;;;;;;;5.25;5.25;;;;;10.32;90.41;102961.75;4958862;28;45354;-72
2024/01/27 14:50:03;;;;;;;;;6.50;5.50;;;;;10.64;100.00;103025.41;4956166;28;45389;-72
2024/01/27 14:52:29;;;;;;;;;4.75;4.75;;;;;10.61;93.68;103014.63;4964743;28;45494;-72
2024/01/27 14:54:54;;;;;;;;;5.00;3.00;;;;;10.35;100.00;102972.50;4960159;28;45431;-72
2024/01/27 14:57:19;;;;;;;;;10.00;6.00;;;;;10.55;91.13;103008.97;4959960;28;45295;-72
2024/01/27 14:59:45;;;;;;;;;6.00;6.00;;;;;10.43;90.42;102995.03;4960237;28;45357;-73
2024/01/27 15:02:10;;;;;;;;;8.00;6.75;;;;;10.36;93.40;102987.53;4959370;28;64588;-74
2024/01/27 15:04:36;;;;;;;;;3.75;3.75;;;;;10.30;93.12;102986.34;4959233;28;57197;-73
2024/01/27 15:07:01;;;;;;;;;10.00;7.25;;;;;10.24;89.95;102990.31;4960311;28;45273;-74
2024/01/27 15:09:27;;;;;;;;;6.25;4.50;;;;;10.11;91.42;102982.44;4959893;28;45570;-73
2024/01/27 15:11:52;;;;;;;;;5.50;5.50;;;;;10.23;86.19;103007.00;4960227;28;45557;-74
2024/01/27 15:14:18;;;;;;;;;7.00;4.75;;;;;10.05;90.07;102977.69;4957319;28;45604;-73
2024/01/27 15:16:44;;;;;;;;;5.00;5.00;;;;;10.05;93.31;102993.56;4962048;28;45424;-74
2024/01/27 15:19:10;;;;;;;;;4.00;4.00;;;;;9.43;86.73;102895.50;4964822;28;45290;-74
2024/01/27 15:21:35;;;;;;;;;5.00;4.00;;;;;9.95;87.96;102989.44;4961778;28;46560;-74
2024/01/27 15:24:00;;;;;;;;;7.75;6.00;;;;;9.86;93.21;102975.69;4954388;28;45544;-73
2024/01/27 15:26:26;;;;;;;;;11.00;6.00;;;;;9.88;91.30;102978.41;4948583;28;45957;-72
2024/01/27 15:28:52;;;;;;;;;4.50;4.50;;;;;9.34;94.41;102891.47;4963463;28;45906;-74
2024/01/27 15:31:17;;;;;;;;;6.00;5.00;;;;;9.73;90.77;102965.16;4978367;28;45413;-74
2024/01/27 15:33:42;;;;;;;;;5.75;5.25;;;;;9.78;94.09;102976.94;4962035;28;51309;-74
2024/01/27 15:36:08;;;;;;;;;7.25;6.25;;;;;9.56;90.07;102946.53;4964175;28;45462;-74
2024/01/27 15:38:33;;;;;;;;;6.50;6.00;;;;;9.42;88.84;102926.25;4974868;28;45284;-74
2024/01/27 15:40:59;;;;;;;;;9.50;5.25;;;;;9.31;91.83;102917.66;4962983;28;46767;-74
2024/01/27 15:43:25;;;;;;;;;6.75;4.50;;;;;9.60;88.31;102984.59;4978646;28;45352;-74
2024/01/27 15:45:52;;;;;;;;;6.00;5.00;;;;;9.53;86.70;102979.75;4981101;28;45420;-74
2024/01/27 15:48:17;;;;;;;;;3.00;2.50;;;;;9.28;91.74;102946.50;4977318;28;45312;-74
2024/01/27 15:50:44;;;;;;;;;6.50;5.00;;;;;9.14;93.78;102936.78;4977038;28;45409;-74
2024/01/27 15:53:09;;;;;;;;;3.50;3.50;;;;;9.36;83.94;102982.22;4960443;28;45578;-74
2024/01/27 15:55:35;;;;;;;;;5.00;4.00;;;;;9.36;90.44;102981.31;4961902;28;45445;-75
2024/01/27 15:58:00;;;;;;;;;3.50;3.00;;;;;9.34;93.32;102988.22;4978787;28;45346;-74
2024/01/27 16:00:26;;;;;;;;;3.75;3.00;;;;;9.22;90.61;102980.41;4958212;28;47853;-74
2024/01/27 16:02:51;;;;;;;;;7.25;7.00;;;;;9.05;93.86;102952.03;4979707;28;45346;-75
2024/01/27 16:05:17;;;;;;;;;22.50;19.50;;;;;8.93;89.03;102936.28;4961617;28;55374;-74
2024/01/27 16:07:42;;;;;;;;;9.50;7.25;;;;;9.15;90.23;102980.81;4977074;28;45655;-74
2024/01/27 16:10:08;;;;;;;;;3.50;2.25;;;;;9.03;91.92;102973.03;4971005;28;46420;-74
2024/01/27 16:12:33;;;;;;;;;6.50;5.50;;;;;8.73;89.53;102948.16;4978184;28;45300;-74
2024/01/27 16:14:59;;;;;;;;;9.25;4.75;;;;;8.83;92.01;102966.44;4962998;28;45340;-73
2024/01/27 16:17:24;;;;;;;;;86.67;74.00;;;;;8.84;94.16;102981.44;4977810;28;45613;-75
2024/01/27 16:19:50;;;;;;;;;34.75;31.00;;;;;8.80;94.79;102986.44;4975572;28;45273;-75
2024/01/27 16:22:16;;;;;;;;;74.50;56.75;;;;;8.10;94.06;102869.25;4978975;28;45167;-74
2024/01/27 16:24:42;;;;;;;;;53.75;41.00;;;;;8.68;98.70;102986.50;4976806;28;45374;-74
2024/01/27 16:27:08;;;;;;;;;78.67;59.67;;;;;8.62;95.74;102986.09;4961008;28;45424;-74
2024/01/27 16:29:34;;;;;;;;;28.25;26.00;;;;;8.50;96.52;102981.81;4973293;28;52811;-75
2024/01/27 16:32:00;;;;;;;;;12.75;11.75;;;;;8.30;99.77;102961.97;4977221;28;45242;-74
2024/01/27 16:34:25;;;;;;;;;90.67;72.67;;;;;8.42;100.00;102995.28;4977449;28;44751;-74
2024/01/27 16:36:51;;;;;;;;;12.00;11.00;;;;;8.14;99.23;102951.19;4976902;28;45233;-77